Time;durP1;ratioP1;P1;durP2;ratioP2;P2;SDS_P1;SDS_P2;PMS_P1;PMS_P2;Temp;Humidity;BMP_temperature;BMP_pressure;BME280_temperature;BME280_humidity;BME280_pressure;Samples;Min_cycle;Max_cycle;Signal;HPM_P1;HPM_P2
2022/11/29 00:01:29;;;;;;;25.17;18.77;;;5.20;99.90;;;;;;5035936;28;20171;-75
2022/11/29 00:03:55;;;;;;;23.90;19.03;;;5.10;99.90;;;;;;5036395;28;20581;-75
2022/11/29 00:06:26;;;;;;;23.03;18.40;;;5.10;99.90;;;;;;5035305;28;20175;-75
2022/11/29 00:08:53;;;;;;;21.80;18.67;;;5.10;99.90;;;;;;5036632;28;20215;-75
2022/11/29 00:14:07;;;;;;;21.57;17.17;;;5.00;99.90;;;;;;5036636;28;20174;-75
2022/11/29 00:16:33;;;;;;;23.43;19.40;;;5.00;99.90;;;;;;5034570;28;20187;-75
2022/11/29 00:18:58;;;;;;;21.87;18.47;;;5.00;99.90;;;;;;5035960;28;20193;-75
2022/11/29 00:21:24;;;;;;;23.57;17.53;;;5.00;99.90;;;;;;5035020;28;20207;-75
2022/11/29 00:23:50;;;;;;;19.93;17.37;;;5.00;99.90;;;;;;5035894;28;20305;-75
2022/11/29 00:26:16;;;;;;;22.60;18.30;;;5.00;99.90;;;;;;5034247;28;20199;-75
2022/11/29 00:28:41;;;;;;;19.90;17.53;;;5.00;99.90;;;;;;5034919;28;20179;-75
2022/11/29 00:31:25;;;;;;;20.93;17.83;;;5.00;99.90;;;;;;5035141;28;20229;-75
2022/11/29 00:33:51;;;;;;;19.53;17.40;;;5.00;99.90;;;;;;5035789;28;20290;-75
2022/11/29 00:36:19;;;;;;;19.23;16.13;;;5.00;99.90;;;;;;5035014;28;20183;-75
2022/11/29 00:38:44;;;;;;;21.83;17.70;;;5.10;99.90;;;;;;5034253;28;20181;-75
2022/11/29 00:41:11;;;;;;;24.73;17.73;;;5.00;99.90;;;;;;5034190;28;20273;-75
2022/11/29 00:43:36;;;;;;;21.13;18.03;;;5.10;99.90;;;;;;5035243;28;20268;-75
2022/11/29 00:46:03;;;;;;;20.17;18.03;;;5.00;99.90;;;;;;5034496;28;20191;-75
2022/11/29 00:48:29;;;;;;;22.30;19.50;;;5.00;99.90;;;;;;5034279;28;20178;-75
2022/11/29 00:50:55;;;;;;;23.43;19.57;;;5.00;99.90;;;;;;5034760;28;20225;-75
2022/11/29 00:53:20;;;;;;;22.57;20.13;;;5.00;99.90;;;;;;5035954;28;20202;-75
2022/11/29 00:55:52;;;;;;;24.53;21.60;;;4.90;99.90;;;;;;5033963;28;20183;-75
2022/11/29 00:58:19;;;;;;;24.47;20.57;;;4.90;99.90;;;;;;5035221;28;20183;-75
2022/11/29 01:00:45;;;;;;;30.23;22.70;;;5.00;99.90;;;;;;5033802;28;20241;-75
2022/11/29 01:03:10;;;;;;;30.17;22.80;;;5.00;99.90;;;;;;5033580;28;20210;-75
2022/11/29 01:05:36;;;;;;;35.40;25.83;;;5.00;99.90;;;;;;5034680;28;20239;-75
2022/11/29 01:08:02;;;;;;;27.77;21.23;;;5.00;99.90;;;;;;5034135;28;20688;-75
2022/11/29 01:10:28;;;;;;;25.27;20.07;;;5.00;99.90;;;;;;5033748;28;20175;-75
2022/11/29 01:12:54;;;;;;;22.50;19.00;;;5.00;99.90;;;;;;5033876;28;20201;-75
2022/11/29 01:16:03;;;;;;;22.97;18.70;;;5.00;99.90;;;;;;5035439;28;20270;-75
2022/11/29 01:18:29;;;;;;;21.30;17.73;;;5.00;99.90;;;;;;5034006;28;20179;-75
2022/11/29 01:21:10;;;;;;;23.17;18.80;;;5.10;99.90;;;;;;5033974;28;20190;-75
2022/11/29 01:23:37;;;;;;;25.37;19.80;;;5.00;99.90;;;;;;5033653;28;20232;-75
2022/11/29 01:26:06;;;;;;;23.43;20.13;;;5.10;99.90;;;;;;5033838;28;20205;-75
2022/11/29 01:28:32;;;;;;;22.83;19.43;;;5.00;99.90;;;;;;5033502;28;20189;-75
2022/11/29 01:30:58;;;;;;;22.37;19.40;;;5.00;99.90;;;;;;5034454;28;20215;-75
2022/11/29 01:33:23;;;;;;;21.73;19.20;;;5.00;99.90;;;;;;5034408;28;20191;-75
2022/11/29 01:35:50;;;;;;;24.60;20.37;;;4.90;99.90;;;;;;5034699;28;20225;-75
2022/11/29 01:38:16;;;;;;;25.20;20.00;;;4.90;99.90;;;;;;5033284;28;20668;-75
2022/11/29 01:40:42;;;;;;;24.03;19.43;;;4.90;99.90;;;;;;5033150;28;20217;-75
2022/11/29 01:43:16;;;;;;;23.20;19.90;;;4.90;99.90;;;;;;5033623;28;20211;-75
2022/11/29 01:45:42;;;;;;;25.77;20.23;;;4.80;99.90;;;;;;5034090;28;20174;-75
2022/11/29 01:48:08;;;;;;;26.50;20.33;;;4.80;99.90;;;;;;5037540;28;20232;-75
2022/11/29 01:50:34;;;;;;;24.63;20.17;;;4.80;99.90;;;;;;5036567;28;20220;-75
2022/11/29 01:52:59;;;;;;;24.10;20.63;;;4.80;99.90;;;;;;5036291;28;20290;-75
2022/11/29 01:55:25;;;;;;;25.03;20.90;;;4.80;99.90;;;;;;5036790;28;20241;-75
2022/11/29 01:57:51;;;;;;;25.30;20.40;;;4.80;99.90;;;;;;5036311;28;20187;-75
2022/11/29 02:00:18;;;;;;;26.00;21.10;;;4.90;99.90;;;;;;5036555;28;20582;-75
2022/11/29 02:02:57;;;;;;;26.30;21.03;;;4.80;99.90;;;;;;5037884;28;20214;-75
2022/11/29 02:05:24;;;;;;;23.10;20.03;;;4.80;99.90;;;;;;5036675;28;20171;-75
2022/11/29 02:07:52;;;;;;;25.47;21.00;;;4.80;99.90;;;;;;5037574;28;20175;-75
2022/11/29 02:10:20;;;;;;;25.20;20.60;;;4.80;99.90;;;;;;5036769;28;20190;-75
2022/11/29 02:12:54;;;;;;;28.60;22.63;;;4.80;99.90;;;;;;5036313;28;20199;-75
2022/11/29 02:15:30;;;;;;;26.07;22.07;;;4.70;99.90;;;;;;5037658;28;20276;-75
2022/11/29 02:18:02;;;;;;;27.30;22.20;;;4.80;99.90;;;;;;5037078;28;20171;-75
2022/11/29 02:20:34;;;;;;;28.27;22.20;;;4.70;99.90;;;;;;5036863;28;20183;-75
2022/11/29 02:23:26;;;;;;;27.47;20.93;;;4.80;99.90;;;;;;5037972;28;20267;-75
2022/11/29 02:26:20;;;;;;;26.90;20.93;;;4.90;99.90;;;;;;5029545;28;20211;-75
2022/11/29 02:28:51;;;;;;;30.80;22.80;;;5.00;99.90;;;;;;5036267;28;20174;-75
2022/11/29 02:31:36;;;;;;;27.17;21.77;;;5.00;99.90;;;;;;5037109;28;20199;-75
2022/11/29 02:34:35;;;;;;;26.33;22.00;;;5.00;99.90;;;;;;5036607;28;20183;-75
2022/11/29 02:37:43;;;;;;;29.17;21.50;;;5.00;99.90;;;;;;5036380;28;20250;-75
2022/11/29 02:40:26;;;;;;;27.10;21.83;;;5.00;99.90;;;;;;5036191;28;20210;-75
2022/11/29 02:43:17;;;;;;;26.00;21.73;;;4.90;99.90;;;;;;5036106;28;20215;-75
2022/11/29 02:46:20;;;;;;;26.13;22.13;;;5.00;99.90;;;;;;5036460;28;20190;-75
2022/11/29 02:49:05;;;;;;;27.53;22.50;;;5.00;99.90;;;;;;5036470;28;20182;-75
2022/11/29 02:51:44;;;;;;;28.07;22.50;;;4.90;99.90;;;;;;5036305;28;20175;-75
2022/11/29 02:54:24;;;;;;;29.30;22.63;;;5.00;99.90;;;;;;5035606;28;20170;-75
2022/11/29 02:56:57;;;;;;;29.03;22.67;;;5.00;99.90;;;;;;5035990;28;20178;-75
2022/11/29 02:59:32;;;;;;;29.03;22.70;;;4.90;99.90;;;;;;5035201;28;20178;-75
2022/11/29 03:02:24;;;;;;;27.33;22.60;;;5.00;99.90;;;;;;5037057;28;20199;-75
2022/11/29 03:05:08;;;;;;;25.73;21.87;;;5.00;99.90;;;;;;5036401;28;20195;-75
2022/11/29 03:08:04;;;;;;;28.83;21.97;;;5.10;99.90;;;;;;5035915;28;20174;-75
2022/11/29 03:10:33;;;;;;;30.83;22.90;;;5.10;99.90;;;;;;5035744;28;20197;-75
2022/11/29 03:13:04;;;;;;;32.50;23.17;;;5.00;99.90;;;;;;5035479;28;20207;-75
2022/11/29 03:15:51;;;;;;;28.00;21.87;;;5.00;99.90;;;;;;5036271;28;20265;-75
2022/11/29 03:18:22;;;;;;;28.40;22.43;;;5.00;99.90;;;;;;5036886;28;20155;-75
2022/11/29 03:21:05;;;;;;;27.87;22.27;;;5.10;99.90;;;;;;5036934;28;20179;-75
2022/11/29 03:23:31;;;;;;;29.03;22.77;;;5.20;99.90;;;;;;5035489;28;20213;-75
2022/11/29 03:26:07;;;;;;;29.73;22.90;;;5.10;99.90;;;;;;5035494;28;20665;-75
2022/11/29 03:28:50;;;;;;;26.80;22.37;;;5.10;99.90;;;;;;5035317;28;20625;-75
2022/11/29 03:31:44;;;;;;;25.60;22.03;;;5.10;99.90;;;;;;5036581;28;20174;-75
2022/11/29 03:34:36;;;;;;;25.83;22.00;;;5.10;99.90;;;;;;5035277;28;20175;-75
2022/11/29 03:37:13;;;;;;;30.20;21.67;;;5.20;99.90;;;;;;5035318;28;20179;-75
2022/11/29 03:39:50;;;;;;;26.60;22.13;;;5.20;99.90;;;;;;5036527;28;20163;-75
2022/11/29 03:42:25;;;;;;;26.47;22.03;;;5.30;99.90;;;;;;5035183;28;20296;-75
2022/11/29 03:45:23;;;;;;;28.13;22.40;;;5.30;99.90;;;;;;5035607;28;20185;-75
2022/11/29 03:48:13;;;;;;;32.00;22.90;;;5.20;99.90;;;;;;5035991;28;20163;-75
2022/11/29 03:54:26;;;;;;;33.70;22.63;;;5.10;99.90;;;;;;5035780;28;20161;-75
2022/11/29 03:56:52;;;;;;;25.43;21.40;;;5.20;99.90;;;;;;5035219;28;20210;-75
2022/11/29 03:59:36;;;;;;;29.20;22.93;;;5.20;99.90;;;;;;5036217;28;20175;-75
2022/11/29 04:02:39;;;;;;;27.43;22.03;;;5.20;99.90;;;;;;5034566;28;20226;-75
2022/11/29 04:05:29;;;;;;;29.67;22.87;;;5.20;99.90;;;;;;5035950;28;20171;-75
2022/11/29 04:08:37;;;;;;;26.43;21.73;;;5.10;99.90;;;;;;5034702;28;20644;-75
2022/11/29 04:11:13;;;;;;;30.27;21.50;;;5.10;99.90;;;;;;5018373;28;20187;-75
2022/11/29 04:14:10;;;;;;;28.30;22.57;;;5.20;99.90;;;;;;5033805;28;20209;-75
2022/11/29 04:16:58;;;;;;;29.57;21.93;;;5.20;99.90;;;;;;5033875;28;20175;-75
2022/11/29 04:19:59;;;;;;;29.93;22.47;;;5.10;99.90;;;;;;5033728;28;20221;-75
2022/11/29 04:22:55;;;;;;;29.83;22.90;;;5.10;99.90;;;;;;5023071;28;20286;-75
2022/11/29 04:25:53;;;;;;;28.80;23.17;;;5.10;99.90;;;;;;5033813;28;20191;-75
2022/11/29 04:28:52;;;;;;;28.87;22.77;;;5.10;99.90;;;;;;5033852;28;20171;-75
2022/11/29 04:31:39;;;;;;;28.90;22.77;;;5.10;99.90;;;;;;5033822;28;20262;-75
2022/11/29 04:34:17;;;;;;;33.13;23.33;;;5.00;99.90;;;;;;5034111;28;20174;-75
2022/11/29 04:36:46;;;;;;;27.90;23.33;;;5.00;99.90;;;;;;5034236;28;20206;-75
2022/11/29 04:43:12;;;;;;;28.00;22.60;;;5.10;99.90;;;;;;5034031;28;20198;-75
2022/11/29 04:46:17;;;;;;;28.07;22.90;;;5.00;99.90;;;;;;5016270;28;20187;-75
2022/11/29 04:49:08;;;;;;;33.70;23.80;;;5.00;99.90;;;;;;5032592;28;20198;-75
2022/11/29 04:51:39;;;;;;;29.90;23.33;;;4.90;99.90;;;;;;5032523;28;20175;-75
2022/11/29 04:54:11;;;;;;;27.57;21.80;;;5.00;99.90;;;;;;5032919;28;20171;-75
2022/11/29 04:56:47;;;;;;;30.17;22.90;;;5.00;99.90;;;;;;5033155;28;20171;-75
2022/11/29 04:59:42;;;;;;;27.97;23.20;;;5.00;99.90;;;;;;5033416;28;20187;-75
2022/11/29 05:02:38;;;;;;;29.40;23.20;;;5.00;99.90;;;;;;5032477;28;20203;-75
2022/11/29 05:05:17;;;;;;;29.37;22.47;;;4.90;99.90;;;;;;5033567;28;20194;-75
2022/11/29 05:08:06;;;;;;;28.23;23.50;;;4.90;99.90;;;;;;5033462;28;20197;-75
2022/11/29 05:10:58;;;;;;;28.03;23.00;;;4.90;99.90;;;;;;5033413;28;20197;-75
2022/11/29 05:14:08;;;;;;;28.87;23.30;;;5.00;99.90;;;;;;5032639;28;20209;-75
2022/11/29 05:17:07;;;;;;;31.37;23.63;;;5.00;99.90;;;;;;5010726;28;20651;-76
2022/11/29 05:20:11;;;;;;;27.83;23.27;;;5.00;99.90;;;;;;5032492;28;20702;-76
2022/11/29 05:23:18;;;;;;;29.97;22.50;;;5.10;99.90;;;;;;5029721;28;20699;-76
2022/11/29 05:26:14;;;;;;;26.90;22.40;;;5.20;99.90;;;;;;5037349;28;20210;-76
2022/11/29 05:29:01;;;;;;;58.10;48.10;;;5.00;99.90;;;;;;5035520;28;20599;-75
2022/11/29 05:32:04;;;;;;;36.40;28.30;;;5.10;99.90;;;;;;5036351;28;20178;-76
2022/11/29 05:34:52;;;;;;;33.03;26.80;;;5.10;99.90;;;;;;5036106;28;20224;-76
2022/11/29 05:37:41;;;;;;;53.30;41.43;;;5.10;99.90;;;;;;5036454;28;20183;-79
2022/11/29 05:40:12;;;;;;;48.60;41.93;;;5.20;99.90;;;;;;5018378;28;20190;-76
2022/11/29 05:42:41;;;;;;;31.87;26.67;;;5.20;99.90;;;;;;5037021;28;20336;-75
2022/11/29 05:48:44;;;;;;;35.17;29.37;;;5.10;99.90;;;;;;5036765;28;20221;-75
2022/11/29 05:51:20;;;;;;;30.53;24.30;;;5.10;99.90;;;;;;5035529;28;20179;-81
2022/11/29 05:57:23;;;;;;;32.33;26.20;;;5.20;99.90;;;;;;5036760;28;20159;-81
2022/11/29 05:59:50;;;;;;;30.00;24.13;;;5.20;99.90;;;;;;5035258;28;20263;-75
2022/11/29 06:02:25;;;;;;;31.97;23.83;;;5.10;99.90;;;;;;5035111;28;20203;-75
2022/11/29 06:04:57;;;;;;;39.23;28.07;;;5.10;99.90;;;;;;5036386;28;20189;-74
2022/11/29 06:07:41;;;;;;;35.83;27.40;;;5.10;99.90;;;;;;5036005;28;20185;-74
2022/11/29 06:10:17;;;;;;;31.07;25.23;;;5.10;99.90;;;;;;5035910;28;20258;-74
2022/11/29 06:12:53;;;;;;;33.63;26.90;;;5.00;99.90;;;;;;5034874;28;20205;-74
2022/11/29 06:15:42;;;;;;;32.80;25.30;;;5.10;99.90;;;;;;5035146;28;20633;-74
2022/11/29 06:18:25;;;;;;;30.40;24.77;;;5.10;99.90;;;;;;5035526;28;20179;-74
2022/11/29 06:21:01;;;;;;;29.70;25.07;;;5.10;99.90;;;;;;5034873;28;20228;-75
2022/11/29 06:23:42;;;;;;;35.87;26.83;;;5.10;99.90;;;;;;5035068;28;20218;-75
2022/11/29 06:26:36;;;;;;;33.00;25.87;;;5.10;99.90;;;;;;5035577;28;20541;-75
2022/11/29 06:29:31;;;;;;;34.07;25.63;;;5.10;99.90;;;;;;5035962;28;20158;-75
2022/11/29 06:32:03;;;;;;;32.40;25.07;;;5.10;99.90;;;;;;5034579;28;20290;-75
2022/11/29 06:34:35;;;;;;;28.77;24.47;;;5.10;99.90;;;;;;5034922;28;20171;-75
2022/11/29 06:37:07;;;;;;;31.10;25.30;;;5.00;99.90;;;;;;5036071;28;20183;-75
2022/11/29 06:39:33;;;;;;;29.30;24.37;;;5.10;99.90;;;;;;5034504;28;20229;-75
2022/11/29 06:42:11;;;;;;;30.13;25.23;;;5.10;99.90;;;;;;5034334;28;20198;-75
2022/11/29 06:44:37;;;;;;;31.80;24.73;;;5.10;99.90;;;;;;5035557;28;20201;-75
2022/11/29 06:47:12;;;;;;;28.90;24.53;;;5.10;99.90;;;;;;5034533;28;20242;-75
2022/11/29 06:50:11;;;;;;;81.93;30.53;;;5.10;99.90;;;;;;5034395;28;20174;-75
2022/11/29 06:52:44;;;;;;;48.47;25.47;;;5.00;99.90;;;;;;5025219;28;20253;-75
2022/11/29 06:55:29;;;;;;;31.40;24.73;;;5.10;99.90;;;;;;5034571;28;20579;-75
2022/11/29 06:58:13;;;;;;;33.23;25.67;;;5.10;99.90;;;;;;5034952;28;20261;-78
2022/11/29 07:00:59;;;;;;;29.67;24.23;;;5.00;99.90;;;;;;5036016;28;20175;-75
2022/11/29 07:03:33;;;;;;;35.73;27.97;;;5.00;99.90;;;;;;5029344;28;20685;-75
2022/11/29 07:06:07;;;;;;;30.70;25.33;;;4.90;99.90;;;;;;5021655;28;20265;-75
2022/11/29 07:08:33;;;;;;;39.57;26.67;;;4.90;99.90;;;;;;5025497;28;20174;-75
2022/11/29 07:10:59;;;;;;;40.03;28.10;;;5.00;99.90;;;;;;5023319;28;20184;-75
2022/11/29 07:13:25;;;;;;;37.33;26.43;;;4.90;99.90;;;;;;5013712;28;20250;-75
2022/11/29 07:16:15;;;;;;;37.57;28.73;;;4.90;99.90;;;;;;5014537;28;20187;-75
2022/11/29 07:19:08;;;;;;;33.20;26.20;;;4.80;99.90;;;;;;5013941;28;20202;-75
2022/11/29 07:22:00;;;;;;;38.57;29.97;;;4.90;99.90;;;;;;5015215;28;20191;-75
2022/11/29 07:24:37;;;;;;;35.00;28.10;;;4.90;99.90;;;;;;5013802;28;20219;-75
2022/11/29 07:27:19;;;;;;;35.47;27.43;;;4.90;99.90;;;;;;5014161;28;20191;-75
2022/11/29 07:29:57;;;;;;;32.60;25.87;;;5.00;99.90;;;;;;5013868;28;20646;-75
2022/11/29 07:32:36;;;;;;;32.17;24.73;;;5.00;99.90;;;;;;4995295;28;20196;-75
2022/11/29 07:35:13;;;;;;;28.67;24.00;;;5.00;99.90;;;;;;5011924;28;20226;-75
2022/11/29 07:38:08;;;;;;;30.93;24.50;;;5.10;99.90;;;;;;5013596;28;20251;-75
2022/11/29 07:40:50;;;;;;;31.47;25.83;;;5.10;99.90;;;;;;4995166;28;20165;-75
2022/11/29 07:43:28;;;;;;;32.50;25.43;;;5.10;99.90;;;;;;4997370;28;20218;-75
2022/11/29 07:45:55;;;;;;;41.90;31.03;;;5.20;99.90;;;;;;5013801;28;20183;-75
2022/11/29 07:48:21;;;;;;;34.87;28.50;;;5.10;99.90;;;;;;5013491;28;20188;-75
2022/11/29 07:50:47;;;;;;;45.60;30.30;;;5.10;99.90;;;;;;5013372;28;20186;-75
2022/11/29 07:53:18;;;;;;;35.97;28.33;;;5.00;99.90;;;;;;5014200;28;20738;-75
2022/11/29 07:55:44;;;;;;;33.80;26.83;;;5.10;99.90;;;;;;5014956;28;20184;-75
2022/11/29 07:58:12;;;;;;;33.63;28.33;;;5.20;99.90;;;;;;5012682;28;20179;-74
2022/11/29 08:00:38;;;;;;;36.80;30.50;;;5.10;99.90;;;;;;5014232;28;20175;-74
2022/11/29 08:03:04;;;;;;;30.37;25.63;;;5.10;99.90;;;;;;5012463;28;20714;-74
2022/11/29 08:05:29;;;;;;;43.87;34.67;;;5.20;99.90;;;;;;5013314;28;20186;-74
2022/11/29 08:07:55;;;;;;;43.57;33.33;;;5.20;99.90;;;;;;5012852;28;20180;-74
2022/11/29 08:10:22;;;;;;;34.90;27.77;;;5.20;99.90;;;;;;5012603;28;20191;-74
2022/11/29 08:12:50;;;;;;;29.57;24.87;;;5.20;99.90;;;;;;5012790;28;20199;-74
2022/11/29 08:15:17;;;;;;;28.20;23.97;;;5.30;99.90;;;;;;5014207;28;20314;-74
2022/11/29 08:17:42;;;;;;;30.37;25.23;;;5.20;99.90;;;;;;5012679;28;20638;-74
2022/11/29 08:20:09;;;;;;;32.63;25.07;;;5.30;99.90;;;;;;5013865;28;20214;-74
2022/11/29 08:22:35;;;;;;;33.67;29.10;;;5.30;99.90;;;;;;5012500;28;20207;-74
2022/11/29 08:25:01;;;;;;;35.40;31.07;;;5.30;99.90;;;;;;5013556;28;20199;-75
2022/11/29 08:27:27;;;;;;;38.73;33.03;;;5.30;99.90;;;;;;5012834;28;20179;-75
2022/11/29 08:29:53;;;;;;;37.00;31.53;;;5.20;99.90;;;;;;5012383;28;20194;-75
2022/11/29 08:32:18;;;;;;;60.93;32.40;;;5.20;99.90;;;;;;5012713;28;20230;-75
2022/11/29 08:34:44;;;;;;;57.13;30.87;;;5.20;99.90;;;;;;5012624;28;20176;-75
2022/11/29 08:37:09;;;;;;;101.73;34.37;;;5.20;99.90;;;;;;5013838;28;20179;-75
2022/11/29 08:39:35;;;;;;;56.90;35.07;;;5.30;99.90;;;;;;5012091;28;20213;-75
2022/11/29 08:42:00;;;;;;;56.63;41.30;;;5.20;99.90;;;;;;5012315;28;20208;-75
2022/11/29 08:44:26;;;;;;;74.63;54.13;;;5.20;99.90;;;;;;5012099;28;20218;-75
2022/11/29 08:49:59;;;;;;;53.70;41.53;;;5.30;99.90;;;;;;5013705;28;20178;-75
2022/11/29 08:55:05;;;;;;;54.93;36.87;;;5.50;99.90;;;;;;5013716;28;20267;-75
2022/11/29 08:57:31;;;;;;;34.60;28.20;;;5.60;99.90;;;;;;5012165;28;20270;-75
2022/11/29 08:59:56;;;;;;;32.97;26.23;;;5.70;99.90;;;;;;5012180;28;20274;-75
2022/11/29 09:02:22;;;;;;;63.60;32.47;;;5.60;99.90;;;;;;5012300;28;20242;-75
2022/11/29 09:04:47;;;;;;;95.87;34.47;;;5.70;99.90;;;;;;5011975;28;20226;-75
2022/11/29 09:07:14;;;;;;;31.97;25.70;;;5.70;99.90;;;;;;5013546;28;20580;-75
2022/11/29 09:09:40;;;;;;;85.13;28.43;;;5.60;99.90;;;;;;5012102;28;20215;-75
2022/11/29 09:12:07;;;;;;;37.03;23.27;;;5.60;99.90;;;;;;5011888;28;20237;-75
2022/11/29 09:14:33;;;;;;;29.00;22.90;;;5.80;99.90;;;;;;5012195;28;20621;-75
2022/11/29 09:17:00;;;;;;;27.37;22.47;;;5.70;99.90;;;;;;5012011;28;20198;-75
2022/11/29 09:19:26;;;;;;;25.87;21.50;;;5.90;99.90;;;;;;5012162;28;20226;-75
2022/11/29 09:21:52;;;;;;;26.30;22.63;;;5.80;99.90;;;;;;5011865;28;20234;-75
2022/11/29 09:24:19;;;;;;;25.43;21.63;;;5.80;99.90;;;;;;5013095;28;20270;-75
2022/11/29 09:26:47;;;;;;;26.13;21.50;;;5.90;99.90;;;;;;5012320;28;20187;-75
2022/11/29 09:29:14;;;;;;;26.33;21.30;;;6.00;99.90;;;;;;5012317;28;20175;-75
2022/11/29 09:31:40;;;;;;;23.57;20.97;;;6.20;99.90;;;;;;5013063;28;20215;-75
2022/11/29 09:34:06;;;;;;;26.65;21.63;;;6.20;99.90;;;;;;5012890;28;20662;-75
2022/11/29 09:36:32;;;;;;;24.73;21.73;;;6.20;99.90;;;;;;5013891;28;20270;-81
2022/11/29 09:39:01;;;;;;;25.17;21.50;;;6.20;99.90;;;;;;5012023;28;20278;-75
2022/11/29 09:41:47;;;;;;;25.52;20.70;;;6.30;99.90;;;;;;5012951;28;20273;-75
2022/11/29 09:44:47;;;;;;;25.33;21.33;;;6.40;99.90;;;;;;5012615;28;20253;-75
2022/11/29 09:47:31;;;;;;;25.83;22.98;;;6.50;99.90;;;;;;5012953;28;20174;-75
2022/11/29 09:50:32;;;;;;;24.88;21.48;;;6.40;99.90;;;;;;5013182;28;20168;-75
2022/11/29 09:53:00;;;;;;;24.30;20.93;;;6.50;99.90;;;;;;5011815;28;20207;-75
2022/11/29 09:55:43;;;;;;;26.43;21.27;;;6.60;99.90;;;;;;5012839;28;20187;-75
2022/11/29 09:58:16;;;;;;;24.43;21.37;;;6.60;99.90;;;;;;5011596;28;20270;-75
2022/11/29 10:00:48;;;;;;;23.95;21.30;;;6.60;99.90;;;;;;5011975;28;20281;-75
2022/11/29 10:03:30;;;;;;;25.75;20.98;;;6.60;99.90;;;;;;5014500;28;20207;-75
2022/11/29 10:06:06;;;;;;;25.10;22.23;;;6.60;99.90;;;;;;5011969;28;20188;-75
2022/11/29 10:08:56;;;;;;;339.33;50.47;;;6.60;99.90;;;;;;5013430;28;20595;-75
2022/11/29 10:12:03;;;;;;;95.40;27.27;;;6.60;99.90;;;;;;5015235;28;20256;-75
2022/11/29 10:15:00;;;;;;;32.10;21.63;;;6.60;99.90;;;;;;5014624;28;20571;-75
2022/11/29 10:17:38;;;;;;;26.90;22.90;;;6.30;99.90;;;;;;4996560;28;20164;-75
2022/11/29 10:20:10;;;;;;;28.75;22.10;;;6.40;99.90;;;;;;5005209;28;20183;-75
2022/11/29 10:22:54;;;;;;;33.03;23.00;;;6.30;99.90;;;;;;5016199;28;20219;-75
2022/11/29 10:25:24;;;;;;;45.55;23.75;;;6.30;99.90;;;;;;5014953;28;20285;-75
2022/11/29 10:27:50;;;;;;;31.38;22.48;;;6.30;99.90;;;;;;5015147;28;20175;-75
2022/11/29 10:30:16;;;;;;;28.57;21.57;;;6.20;99.90;;;;;;5014821;28;20222;-75
2022/11/29 10:32:45;;;;;;;24.33;20.73;;;6.30;99.90;;;;;;5015849;28;20200;-75
2022/11/29 10:35:17;;;;;;;23.15;20.50;;;6.40;99.90;;;;;;5015734;28;20184;-75
2022/11/29 10:37:43;;;;;;;24.90;21.23;;;6.50;99.90;;;;;;5022628;28;20179;-75
2022/11/29 10:40:16;;;;;;;25.07;21.67;;;6.50;99.90;;;;;;5024018;28;20183;-75
2022/11/29 10:42:47;;;;;;;25.05;21.25;;;6.60;99.90;;;;;;5023401;28;20202;-75
2022/11/29 10:45:28;;;;;;;24.73;20.92;;;6.70;99.90;;;;;;5028260;28;20172;-75
2022/11/29 10:48:25;;;;;;;26.27;21.92;;;6.70;99.90;;;;;;5035457;28;20213;-75
